Glendive, MT (59330)

8:36 AM MST on February 27, 2015 (GMT -0700)
APRSWXNET Glendive MT US | Change Station
CLOSE
Current Station
Personal Weather Station
Location: Glendive, MT
Elevation: 2208 ft
Nearby Weather Stations
Active Advisory: Wind Chill Advisory

Elev 2208 ft 47.04 °N, 104.80 °W | Updated 38 minutes ago

Clear
Clear
3 °F
Feels Like 3 °F
N
1
Wind Variable Wind from ENE
Gusts 4.0 mph

Today
High -- | Low -- °F
--% Chance of Precip.
Yesterday
High -- | Low -- °F
Precip. -- in
6:42 AM 5:41 PM
Waxing Gibbous, 69% visible
Pressure 30.17 in
Visibility 10.0 miles
Clouds Clear
Windchill 3 °F
Dew Point -2 °F
Humidity 80%
Rainfall 0.00 in
Snow Depth Not available.
UV 1 out of 12
Pollen .10 out of 12
Air Quality Not available.
Flu Activity Not available.
METAR KGDV 271515Z AUTO 15006KT 10SM CLR M15/M18 A3017 RMK AO1

More Conditions Fewer Conditions

Pressure 30.17 in
Visibility 10.0 miles
Clouds Clear
Windchill 3 °F
Dew Point -2 °F
Humidity 80%
Rainfall 0.00 in
Snow Depth Not available.
UV 1 out of 12
Pollen .10 out of 12
Air Quality Not available.
Flu Activity Not available.
METAR KGDV 271515Z AUTO 15006KT 10SM CLR M15/M18 A3017 RMK AO1

More Conditions Fewer Conditions

10-Day Weather Forecast

Almanac

Astronomy

Feb. 27, 2015 Rise Set
Actual Time
Civil Twilight
Nautical Twilight
Astronomical Twilight
Moon
Length of Visible Light
Length of Day
Tomorrow will be .
, % of the Moon is Illuminated

Today's Extremes

State Highs State Lows

Community

WunderPhotos

Upload Photos

1,800,699 photos uploaded!

WunderBlogs® & News

Nearby

Air Quality

  Air Quality AQ Index Pollutant
Not available.

Snow Depth

Station Depth Elevation

Earthquake Activity

City Distance Mag. Time & Date
Minimum magnitude displayed is 2.5.

Coastal Water Temperatures

Place Temperature

Nearby Weather Stations

Wind Chill Advisory
Statement as of 2:55 AM MST on February 27, 2015

... Wind Chill Advisory remains in effect until 9 am MST this
morning...

A Wind Chill Advisory remains in effect until 9 am MST this
morning.

* Timing... through this morning.

* Wind chill values... 20 to 30 below.

* Main impact... frostbite can occur in less than 30 minutes.

Precautionary/preparedness actions...

Try to dress adequately. Be sure to wear layered light weight and
wind proof clothing... and wear a hat and mittens for protection
from the dangers of frostbite.